Gary Fernandez

Olheiro - Universidad Catolica
19 Set 2027
Domingo
Processo

Personalidade

Adaptabilidade (2) Ambição (6) Controvérsia (2) Lealdade (19) Pressão (7) Profissionalismo (1) Espírito Esportivo (12) Temperamento (2)

Perfil

Estilo de Treinamento Democrático
Licença Continental A
Determinação 6
Gestão de Pessoas 7
Motivação 14
Disciplina 5
Satisfação no Trabalho
100%
Fadiga
0%
Função Olheiro
Salário 51.9K p/s
Contrato 14.03.2028

Desempenho

Comportamento Bom
Eficácia do Treinamento
51%
Desenvolvimento do Jogador
25%
Prevenção de Lesões
60%
Implementação Tática
30%

Eventos Recentes

Participou de uma reunião de recrutamento 7d atrás
Participou de uma reunião de recrutamento 7d atrás
Participou de uma reunião de recrutamento 14d atrás
Participou de uma reunião de recrutamento 14d atrás
Participou de uma reunião de recrutamento 21d atrás
Participou de uma reunião de recrutamento 21d atrás
Participou de uma reunião de recrutamento 28d atrás
Participou de uma reunião de recrutamento 28d atrás

Monitorando agora

173
Jogador Clube Status Habilidade Confiança Observado Última observação Último voto
Nicolas Schmid Portsmouth Perdido 123 / 120 40% 1 02.06.2027 -
Daniel Iversen Preston Ativo 132 / 132 40% 1 02.06.2027 -
Pablo Parra Universidad de Concepcion Perdido 112 / 112 62% 1 01.06.2027 -
Adrià Altimira Deportivo La Coruña Ativo 128 / 129 40% 6 31.05.2027 -
Callum Brittain Middlesbrough Ativo 132 / 131 40% 1 31.05.2027 -
Saša Lukić Ipswich Town Ativo 152 / 142 40% 4 30.05.2027 -
Welington Southampton Ativo 119 / 130 40% 3 28.05.2027 -
Kwadwo Baah Watford Ativo 140 / 129 40% 4 28.05.2027 -
Jason Knight Bristol City Ativo 133 / 134 40% 1 27.05.2027 -
Marcus Edwards Burnley Ativo 150 / 139 40% 5 26.05.2027 -
Luka Romero Cruz Azul Ativo 113 / 122 40% 3 26.05.2027 -
Rumarn Burrell Queens Park Rangers Ativo 118 / 128 40% 3 24.05.2027 -
Matt O'Riley Blackburn Rovers Ativo 143 / 141 40% 1 24.05.2027 -
Anton Stach Leeds United Ativo 142 / 153 40% 3 22.05.2027 Observar
Lewis Cook Bournemouth Ativo 155 / 142 40% 1 22.05.2027 Mais informações
Lorenzo Amatucci Deportivo La Coruña Ativo 120 / 131 40% 1 19.05.2027 -
Nordi Mukiele Sunderland Ativo 137 / 139 40% 1 19.05.2027 -
Léo Scienza Southampton Ativo 133 / 131 40% 3 16.05.2027 -
Giorgi Chakvetadze Watford Ativo 139 / 132 40% 2 15.05.2027 -
Josh Murphy Portsmouth Ativo 136 / 128 40% 1 15.05.2027 -
Brooke Norton-Cuffy Hull City Ativo 147 / 138 40% 7 14.05.2027 -
Rob Atkinson Bristol City Ativo 113 / 123 40% 1 14.05.2027 -
Aaron Hickey Brentford Ativo 159 / 142 40% 1 13.05.2027 -
Aidomo Emakhu Oxford United Ativo 127 / 127 40% 1 12.05.2027 -
Filip Marschall Stevenage Ativo 102 / 109 40% 3 11.05.2027 -
Josh Keeley Luton Town Ativo 126 / 129 40% 2 11.05.2027 -
Ronald Swansea City Ativo 132 / 130 40% 1 11.05.2027 -
Finn Azaz Southampton Ativo 113 / 132 40% 1 08.05.2027 -
Stephy Mavididi Leicester City Ativo 120 / 123 40% 1 07.05.2027 -
Florentino Luís Ipswich Town Ativo 134 / 137 40% 3 05.05.2027 -
Sergio Barlocco Trento Ativo 111 / 110 40% 1 05.05.2027 -
Ethan Ampadu Leeds United Ativo 144 / 145 40% 1 05.05.2027 -
Tim Iroegbunam Hull City Ativo 138 / 141 40% 3 02.05.2027 -
Dara O'Shea Ipswich Town Ativo 147 / 130 40% 1 02.05.2027 -
Marcelo Allende Mamelodi Sundowns Ativo 136 / 129 40% 2 01.05.2027 -
Igor Burnley Ativo 137 / 137 40% 2 01.05.2027 -
Jack Rudoni Coventry City Ativo 136 / 131 40% 1 29.04.2027 -
Maduka Okoye Udinese Ativo 141 / 137 40% 1 29.04.2027 -
Jordan Amissah Burton Albion Ativo 103 / 110 40% 3 27.04.2027 -
Aaron Collins Milton Keynes Dons Ativo 114 / 119 40% 1 26.04.2027 -
Tyrese Campbell Sheffield United Ativo 140 / 121 40% 2 25.04.2027 -
Relebohile Mofokeng Orlando Pirates Ativo 132 / 126 40% 2 22.04.2027 -
Giacomo Raspadori Atalanta Ativo 142 / 147 40% 2 19.04.2027 -
Kristoffer Lund Birmingham Ativo 118 / 129 40% 2 18.04.2027 -
Issa Kaboré Wrexham Ativo 117 / 130 40% 2 16.04.2027 -
Alessandro Buongiorno Udinese Ativo 141 / 160 40% 1 16.04.2027 -
Andre Brooks Sheffield United Ativo 143 / 127 40% 2 13.04.2027 -
Joseph Sulemana WAFA Ativo 92 / 106 40% 1 08.04.2027 -
Efraín Álvarez Udinese Ativo 142 / 124 40% 2 05.04.2027 -
Ilyas Ansah Hull City Ativo 120 / 131 40% 1 05.04.2027 -
Noah Sadiki Sunderland Ativo 131 / 149 40% 1 01.04.2027 -
Mohammed Galadima Aswan Ativo 83 / 98 40% 1 31.03.2027 -
Killian Cahill Leyton Orient Ativo 100 / 104 40% 1 28.03.2027 -
Will Dennis Milton Keynes Dons Ativo 106 / 107 40% 3 26.03.2027 -
Joshua Oluwayemi Newport County Ativo 98 / 100 40% 1 26.03.2027 -
John Okoye Ebuka Ittihad Ativo 128 / 111 40% 1 23.03.2027 -
Hlompho Manyama Sivasspor Ativo 106 / 115 40% 1 20.03.2027 -
Nathan Bishop AFC Wimbledon Ativo 96 / 104 40% 4 16.03.2027 -
Thulani Furman SuperSport United Ativo 125 / 102 40% 2 11.03.2027 -
Tom Booth Crewe Alexandra Ativo 111 / 100 40% 1 11.03.2027 -
Bobby Thomas Coventry City Ativo 125 / 133 40% 1 03.03.2027 -
Ibrahim Sangaré Nottingham Forest Ativo 158 / 141 40% 1 03.03.2027 -
Oleksandr Saputin Zorya Ativo 132 / 118 40% 2 28.02.2027 -
Jacques Ekomié Wrexham Ativo 126 / 126 40% 1 27.02.2027 -
Exequiel Palacios Ipswich Town Ativo 153 / 150 40% 1 26.02.2027 -
Matthew Targett Hull City Ativo 119 / 125 40% 3 21.02.2027 -
Elia Caprile Cagliari Ativo 142 / 149 40% 2 16.02.2027 -
Bilal Bayazıt Kayserispor Ativo 133 / 122 40% 1 16.02.2027 -
George Wickens Lincoln City Ativo 123 / 117 40% 1 10.02.2027 -
Phil Neumann Birmingham Ativo 116 / 120 40% 1 09.02.2027 -
Tormena Krasnodar Ativo 123 / 132 40% 1 09.02.2027 -
Cameron Pring Bristol City Perdido 116 / 132 40% 1 08.02.2027 -
Karel Spáčil Viktoria Plzen Ativo 132 / 126 40% 1 08.02.2027 -
Arthur Beroe Ativo 111 / 107 40% 1 08.02.2027 -
Hidemasa Morita Hull City Ativo 140 / 138 40% 1 04.02.2027 -
Stephen Eustáquio Swansea City Ativo 142 / 141 40% 1 04.02.2027 -
Andile Vilakazi Free State Stars Ativo 116 / 123 40% 1 01.02.2027 -
Gastón Benedetti Estudiantes Ativo 126 / 128 40% 1 01.02.2027 -
Jordan Lotomba Bloemfontein Celtic Ativo 110 / 120 40% 2 31.01.2027 -
Matías Pérez Racing Club Ativo 119 / 126 40% 1 31.01.2027 -
Agustín Lastra Estudiantes Ativo 119 / 112 40% 1 29.01.2027 -
Jimmy Dunne Queens Park Rangers Ativo 126 / 125 40% 1 28.01.2027 -
Sasha Marcich Lanús Ativo 129 / 124 40% 2 26.01.2027 -
Francisco Álvarez Argentinos Juniors Ativo 125 / 128 40% 1 24.01.2027 -
Claudio Bravo Argentinos Juniors Ativo 131 / 120 40% 1 24.01.2027 -
Egoitz Arana Real Sociedad Ativo 105 / 109 40% 1 23.01.2027 -
Enzo Vázquez Central Norte Ativo 110 / 112 40% 1 23.01.2027 -
Ferland Mendy Basel Ativo 143 / 146 40% 3 22.01.2027 -
Emanuel Coronel Rosario Central Ativo 136 / 124 40% 1 22.01.2027 -
Teboho Mokoena Mamelodi Sundowns Ativo 149 / 135 40% 2 21.01.2027 -
Gastón Hernández San Lorenzo Ativo 132 / 124 40% 1 21.01.2027 -
Nahuel Manganelli San Martín Ativo 112 / 113 40% 2 19.01.2027 -
Sebastián Valdez Independiente Ativo 120 / 124 40% 1 19.01.2027 -
Franco Ibarra Rosario Central Ativo 129 / 131 40% 1 15.01.2027 -
Ignacio Vázquez Platense Ativo 132 / 126 40% 1 15.01.2027 -
Grégoire Coudert Burnley Ativo 115 / 134 40% 1 15.01.2027 Mais informações
Murphy Cooper Plymouth Argyle Ativo 127 / 112 40% 1 15.01.2027 -
Rodrigo González Aldosivi Ativo 124 / 121 40% 1 11.01.2027 -
Alexis Maldonado Belgrano Ativo 131 / 123 40% 1 11.01.2027 -
Leonardo Godoy Independiente Ativo 118 / 125 40% 2 09.01.2027 -
Michael Cooper Sheffield United Ativo 146 / 125 40% 1 08.01.2027 -
Nicolás Sumavil Platense Ativo 119 / 118 40% 1 06.01.2027 -
Joaquín Enrico San Telmo Ativo 108 / 107 40% 1 06.01.2027 -
José Florentín Independiente Rivadavia Ativo 119 / 123 40% 1 04.01.2027 -
Melker Ellborg Sunderland Ativo 121 / 116 40% 1 30.11.2026 -
Juan Bisanz Huracán Ativo 137 / 123 40% 1 28.11.2026 -
Edwuin Cetré Estudiantes Ativo 130 / 124 40% 1 28.11.2026 -
Breel Embolo Ankaragucu Ativo 133 / 144 40% 4 27.11.2026 -
Leo Ceara Kashima Antlers Ativo 148 / 130 40% 3 25.11.2026 -
Erik Botheim Viking Ativo 144 / 127 40% 2 22.11.2026 -
M'Bala Nzola Cagliari Ativo 124 / 129 40% 1 22.11.2026 -
Lucas Souto Defensa y Justicia Ativo 133 / 119 40% 3 21.11.2026 -
Ulises Sánchez Gimnasia y Esgrima Ativo 126 / 124 40% 2 20.11.2026 -
Sebastián Villa Boca Juniors Ativo 125 / 129 40% 1 18.11.2026 -
Domagoj Drožđek Tractor Ativo 135 / 128 40% 1 18.11.2026 -
Rafael Santos Borré River Plate Ativo 140 / 132 40% 1 17.11.2026 -
Alexey Miranchuk Krasnodar Ativo 149 / 149 40% 3 15.11.2026 -
Cristian Shpendi Cesena Ativo 130 / 134 40% 1 14.11.2026 -
Tobias Bech AGF Ativo 113 / 126 40% 1 11.11.2026 -
Tomáš Chorý CSKA Moscow Ativo 132 / 147 40% 1 10.11.2026 -
Oli McBurnie Hull City Ativo 135 / 126 40% 1 08.11.2026 -
Youssef Al Hammadi Al Shaab Ativo 121 / 127 40% 1 05.11.2026 -
Franco Cristaldo Talleres Ativo 116 / 122 40% 2 04.11.2026 -
Alex Luna Instituto Ativo 135 / 128 40% 1 03.11.2026 Mais informações
Jherson Mosquera Newell's Old Boys Ativo 125 / 121 40% 1 02.11.2026 -
Federico Navarro Rosario Central Ativo 127 / 131 40% 1 31.10.2026 -
Gastón Lodico Racing Club Ativo 132 / 127 40% 1 31.10.2026 -
Nicolás Tripichio San Lorenzo Ativo 121 / 123 40% 1 30.10.2026 -
Kristian Eriksen Molde Ativo 124 / 125 40% 1 25.10.2026 -
Tatsuhiro Sakamoto Coventry City Ativo 144 / 129 40% 1 24.10.2026 -
Dániel Gazdag New England Revolution Ativo 120 / 125 40% 3 21.10.2026 -
José Alberti Wanderers Ativo 121 / 126 40% 1 20.10.2026 -
Mandla Phiri SuperSport United Ativo 152 / 143 40% 1 18.10.2026 -
Nacho Vidal Lech Ativo 115 / 123 40% 2 15.10.2026 -
Maurits Kjærgaard Red Bull Salzburg Ativo 113 / 127 40% 1 14.10.2026 -
Nahuel Furtado Wanderers Ativo 119 / 124 40% 1 13.10.2026 -
Iker Muñoz Osasuna Ativo 114 / 134 40% 1 13.10.2026 -
Takuma Asano Sanfrecce Hiroshima Ativo 126 / 140 40% 2 10.10.2026 -
Cheikh Sabaly Vancouver Whitecaps Ativo 116 / 116 40% 1 09.10.2026 -
Ryoya Yamashita Gamba Osaka Ativo 118 / 123 40% 2 06.10.2026 -
Toni Lato Zob Ahan Ativo 108 / 131 40% 1 06.10.2026 -
Evander NK Osijek Ativo 128 / 140 40% 1 02.10.2026 -
Lucas Assadi AIK Ativo 109 / 123 40% 1 02.10.2026 -
Haissem Hassan Bloemfontein Celtic Ativo 123 / 125 40% 1 30.09.2026 -
Denis Bouanga Los Angeles Football Club Ativo 118 / 137 40% 1 30.09.2026 -
José Gayà Valencia Ativo 131 / 128 40% 1 27.09.2026 -
Bongokuhle Hlongwane Minnesota United FC Ativo 118 / 122 40% 1 25.09.2026 -
Siyabonga Mothiba Ajax Cape Town Ativo 125 / 120 40% 1 21.09.2026 -
Veljko Birmančević Ferencvaros Ativo 128 / 132 40% 3 17.09.2026 -
Christian Kouamé Aris Thessaloniki Ativo 136 / 135 40% 1 15.09.2026 -
Pablo Ibañez Alavés Ativo 116 / 130 40% 1 14.09.2026 -
Antony Portland Timbers Ativo 120 / 138 40% 2 11.09.2026 -
Kelvin Yeboah Minnesota United FC Ativo 115 / 118 40% 2 11.09.2026 -
Antonio Galeano Remo Stars Ativo 135 / 128 40% 1 10.09.2026 -
Rob Holding Colorado Rapids Ativo 119 / 129 40% 1 09.09.2026 -
David Douděra FC Cincinnati Ativo 113 / 135 40% 2 08.09.2026 -
Mikkel Desler Austin FC Ativo 114 / 124 40% 1 08.09.2026 -
Gabriel Pirani San Diego Football Club Ativo 126 / 138 40% 1 07.09.2026 -
Aliou Dieng Valencia Ativo 112 / 130 40% 1 07.09.2026 -
Francisco González Metilli Belgrano Ativo 116 / 127 40% 1 03.09.2026 -
Clayton Olympiacos Ativo 115 / 125 40% 1 02.09.2026 -
Barnabás Varga AEK Ativo 118 / 135 40% 1 02.09.2026 -
Musa Barrow Al-Khaleej Ativo 122 / 129 40% 2 31.08.2026 -
Mutsuki Kato Sanfrecce Hiroshima Ativo 135 / 136 40% 1 30.08.2026 -
Riqui Puig LA Galaxy Ativo 135 / 124 40% 1 28.08.2026 -
Miles Robinson FC Cincinnati Ativo 139 / 130 40% 1 27.08.2026 -
Justin de Haas Valencia Ativo 130 / 123 40% 1 27.08.2026 -
Juan Manuel Sanabria Real Salt Lake Ativo 124 / 125 40% 1 23.08.2026 -
Lukas Engel Real Salt Lake Ativo 136 / 115 40% 1 23.08.2026 -
Luca Langoni New England Revolution Ativo 126 / 127 40% 2 22.08.2026 -
Allan Saint-Maximin Charlotte Football Club Ativo 139 / 139 40% 1 22.08.2026 -
Timothy Castagne CSKA Moscow Ativo 147 / 141 40% 1 20.08.2026 -
Cristian Roldan Seattle Sounders Ativo 114 / 128 40% 1 17.08.2026 -